Airfield :
LOGIN :

Register | Disclaimer

   EN    FR    IT 

 










Legend :    VFR   Marginal VFR   IFR   Intensive IFR   Very Intensive IFR
Visi :
Ceiling :
>= 8 km
>= 3000ft
5 to 8 km
1000 to 3000 ft
1500m to 5 km
500 to 1000 ft
800 to 1500m
200 to 500 ft
< 800m
< 200 ft
Symbols :   Thunderstorms  Fog  Heavy snow  Heavy precipitations  Wind > 20 kt
SIGMETs :     Misc.  Thunderstorms  Icing  Turbulence  Mountain Waves  Volcanic Ashes







- Airport Elevation : 46 ft
- IATA code : SNN


EINN - Shannon

CURRENT METAR :
  • 201530Z 05012KT 9999 FEW012 FEW018CB SCT030 BKN060 06/04 Q1013 NOSIG

EXPIRED METARs :
  • 201500Z 05010KT 9999 FEW012 SCT022 BKN050 07/04 Q1013 NOSIG
  • 201430Z 03011KT 9999 -SHRA FEW012 FEW018CB BKN028 07/04 Q1013 NOSIG
  • 201400Z 03010KT 9999 FEW010 FEW018CB SCT060 06/04 Q1013 NOSIG
  • 201330Z 04012KT 9999 FEW014 SCT018CB BKN060 06/04 Q1014 NOSIG
  • 201300Z 04013KT 9999 FEW023 BKN060 07/03 Q1014 NOSIG

TAF TAF EINN
Valid from the 20 at 12:00 until the 21 at 12:00 UTC


201100Z 2012/2112 04012KT 9999 FEW040
PROB30
TEMPO 2012/2019 -SHRA FEW018CB
TEMPO 2019/2103 7000 SHRA BKN009 SCT018CB
TEMPO 2103/2112 3000 -SHRA BR BKN009
BECMG 2106/2109 VRB03KT
No reported NOTAMs for that airfield.



MET'MAP, your aeronautical weather chart ! - Copyright ORBIFLY December 2007 - Disclaimer

ORBIFLY MET'MAP TEAM :

Programming & Development : Alexandra Zaïnal
Concept & Development : Baudouin d'Aumeries
Co-Development & Prog : Marc-Olivier Méhu
Technical & hardware support : Manuel Goepfert

Contact : metmap@orbifly.com




SOURCES & CREDITS :

   NOAA